Time;durP1;ratioP1;P1;durP2;ratioP2;P2;SDS_P1;SDS_P2;PMS_P1;PMS_P2;Temp;Humidity;BMP_temperature;BMP_pressure;BME280_temperature;BME280_humidity;BME280_pressure;Samples;Min_cycle;Max_cycle;Signal;HPM_P1;HPM_P2
2023/08/26 00:00:31;;;;;;;45.08;31.52;;;20.10;99.90;;;20.48;84.32;99870.16;5010993;28;20120;-83
2023/08/26 00:02:58;;;;;;;46.15;31.17;;;20.10;99.90;;;20.48;83.98;99879.09;5014050;28;20121;-83
2023/08/26 00:05:26;;;;;;;45.55;31.65;;;20.10;99.90;;;20.48;83.78;99879.09;4989768;28;20074;-83
2023/08/26 00:07:53;;;;;;;43.63;31.52;;;20.10;99.90;;;20.43;nan;99879.13;5013346;28;20066;-83
2023/08/26 00:10:20;;;;;;;47.72;31.00;;;20.10;99.90;;;20.43;84.16;99879.13;5010731;28;20091;-83
2023/08/26 00:12:47;;;;;;;48.45;34.03;;;20.00;99.90;;;20.43;83.92;99864.78;4989502;28;20046;-83
2023/08/26 00:15:16;;;;;;;51.63;34.20;;;20.00;99.90;;;20.43;83.79;99864.78;5018838;28;20120;-83
2023/08/26 00:17:43;;;;;;;48.78;34.17;;;20.00;99.90;;;20.43;83.97;99862.88;5002651;28;20133;-83
2023/08/26 00:20:11;;;;;;;55.20;36.38;;;20.00;99.90;;;20.42;83.55;99872.09;5008124;28;20034;-83
2023/08/26 00:22:38;;;;;;;49.13;33.17;;;20.00;99.90;;;20.38;83.96;99870.28;5008343;28;20084;-83
2023/08/26 00:25:07;;;;;;;46.47;33.03;;;20.00;99.90;;;20.35;83.73;99868.97;4997921;28;20046;-83
2023/08/26 00:27:34;;;;;;;48.28;33.35;;;20.00;99.90;;;20.33;83.08;99866.53;5009552;28;20041;-82
2023/08/26 00:30:01;;;;;;;50.22;34.05;;;20.00;99.90;;;20.33;82.75;99871.13;4989266;28;20034;-83
2023/08/26 00:32:30;;;;;;;48.72;33.42;;;20.00;99.90;;;20.34;82.96;99867.31;5005208;28;20541;-83
2023/08/26 00:34:57;;;;;;;51.25;33.50;;;20.00;99.90;;;20.35;82.67;99868.13;5011262;28;20112;-83
2023/08/26 00:37:25;;;;;;;48.72;31.73;;;20.00;99.90;;;20.36;82.47;99869.78;4994754;28;20046;-82
2023/08/26 00:39:52;;;;;;;46.00;31.02;;;20.00;99.90;;;20.35;82.34;99866.25;4996493;28;20080;-83
2023/08/26 00:42:20;;;;;;;43.78;30.63;;;20.00;99.90;;;20.27;82.29;99872.31;4999171;28;20089;-83
2023/08/26 00:44:47;;;;;;;42.20;29.92;;;19.90;99.90;;;20.25;82.44;99869.91;5002273;28;20057;-83
2023/08/26 00:47:14;;;;;;;43.78;31.10;;;19.90;99.90;;;20.22;81.90;99869.66;4992327;28;20053;-83
2023/08/26 00:49:43;;;;;;;43.05;30.38;;;19.90;99.90;;;20.21;81.45;99873.47;5012567;28;20057;-82
2023/08/26 00:52:12;;;;;;;38.50;27.00;;;19.90;99.90;;;20.18;81.44;99882.97;5009990;28;20041;-83
2023/08/26 00:54:39;;;;;;;38.95;27.00;;;19.80;99.90;;;20.17;81.07;99880.56;4997464;28;20066;-83
2023/08/26 00:57:08;;;;;;;39.83;26.30;;;19.80;99.90;;;20.16;81.10;99879.75;5002301;28;20044;-85
2023/08/26 00:59:37;;;;;;;38.30;25.10;;;19.80;99.90;;;20.16;80.49;99881.66;4996632;28;20052;-82
2023/08/26 01:02:05;;;;;;;35.72;23.77;;;19.80;99.90;;;20.14;79.72;99883.84;5031327;28;20058;-83
2023/08/26 01:04:32;;;;;;;32.47;23.27;;;19.80;99.90;;;20.10;79.97;99880.88;4996380;28;20453;-83
2023/08/26 01:07:02;;;;;;;35.25;22.60;;;19.70;99.90;;;20.08;79.96;99885.78;5007938;28;20041;-82
2023/08/26 01:09:29;;;;;;;33.88;22.30;;;19.70;99.90;;;20.03;80.11;99878.53;5011602;28;20135;-83
2023/08/26 01:12:08;;;;;;;33.63;21.88;;;19.70;99.90;;;20.03;79.49;99878.53;4995645;28;20056;-83
2023/08/26 01:14:39;;;;;;;33.50;21.17;;;19.60;99.90;;;20.04;79.87;99879.34;5030168;28;20068;-83
2023/08/26 01:17:08;;;;;;;31.33;20.83;;;19.60;99.90;;;20.01;79.57;99878.03;5013742;28;20088;-83
2023/08/26 01:19:39;;;;;;;30.27;20.15;;;19.60;99.90;;;20.00;79.26;99881.00;5015488;28;20112;-83
2023/08/26 01:22:09;;;;;;;30.77;18.90;;;19.60;99.90;;;19.97;78.39;99873.47;5005115;28;20557;-83
2023/08/26 01:24:39;;;;;;;28.17;19.08;;;19.60;99.90;;;19.91;78.57;99880.84;5004238;28;20108;-83
2023/08/26 01:27:07;;;;;;;30.38;19.20;;;19.60;99.90;;;19.93;78.56;99888.69;5013709;28;20041;-83
2023/08/26 01:29:35;;;;;;;28.95;18.95;;;19.60;99.90;;;19.92;78.53;99892.50;4993639;28;20359;-83
2023/08/26 01:32:17;;;;;;;26.23;18.17;;;19.50;99.90;;;19.90;78.95;99894.66;5006339;28;20062;-82
2023/08/26 01:34:50;;;;;;;24.92;19.05;;;19.50;99.90;;;19.87;79.15;99896.06;5017465;28;20129;-83
2023/08/26 01:37:19;;;;;;;25.98;17.80;;;19.50;99.90;;;19.87;78.89;99906.88;5007708;28;20537;-83
2023/08/26 01:39:52;;;;;;;25.08;17.52;;;19.50;99.90;;;19.89;78.77;99893.84;4995866;28;20703;-83
2023/08/26 01:42:23;;;;;;;25.38;17.30;;;19.50;99.90;;;19.87;78.32;99889.84;5013497;28;20041;-83
2023/08/26 01:44:51;;;;;;;26.65;17.75;;;19.50;99.90;;;19.87;78.94;99906.88;5006677;28;20049;-83
2023/08/26 01:47:18;;;;;;;28.40;17.40;;;19.50;99.90;;;19.86;78.92;99907.94;4997098;28;20048;-82
2023/08/26 01:49:46;;;;;;;24.73;16.35;;;19.50;99.90;;;19.85;78.91;99895.50;5007702;28;20073;-83
2023/08/26 01:52:13;;;;;;;28.38;17.00;;;19.40;99.90;;;19.85;78.45;99906.34;5000522;28;20046;-83
2023/08/26 01:54:41;;;;;;;30.02;16.42;;;19.40;99.90;;;19.81;78.18;99902.59;4987716;28;20049;-83
2023/08/26 01:57:09;;;;;;;28.70;16.70;;;19.40;99.90;;;19.78;79.17;99903.97;4990597;28;20144;-82
2023/08/26 01:59:36;;;;;;;23.98;15.32;;;19.40;99.90;;;19.80;78.27;99909.09;4996203;28;20107;-82
2023/08/26 02:02:04;;;;;;;23.50;15.80;;;19.40;99.90;;;19.78;78.51;99909.41;4985092;28;20133;-83
2023/08/26 02:04:31;;;;;;;26.85;15.15;;;19.40;99.90;;;19.76;78.03;99903.47;5004329;28;20046;-83
2023/08/26 02:06:58;;;;;;;26.65;16.48;;;19.40;99.90;;;19.75;78.11;99898.31;5024112;28;20119;-83
2023/08/26 02:09:26;;;;;;;23.63;15.18;;;19.40;99.90;;;19.75;78.49;99903.75;5000157;28;20042;-83
2023/08/26 02:11:53;;;;;;;26.10;16.02;;;19.30;99.90;;;19.74;78.57;99894.00;4996953;28;20043;-83
2023/08/26 02:14:22;;;;;;;25.45;15.05;;;19.30;99.90;;;19.73;78.11;99909.44;5009157;28;20775;-83
2023/08/26 02:16:50;;;;;;;26.70;16.38;;;19.30;99.90;;;19.71;77.74;99924.34;5004754;28;20056;-83
2023/08/26 02:19:18;;;;;;;18.40;13.35;;;19.20;99.90;;;19.45;77.62;99924.53;5001474;28;20057;-82
2023/08/26 02:21:46;;;;;;;15.57;8.95;;;19.10;99.90;;;19.31;72.44;99931.69;4995134;28;20070;-83
2023/08/26 02:24:13;;;;;;;11.98;5.53;;;19.00;99.90;;;19.18;70.40;99938.56;4994768;28;20064;-83
2023/08/26 02:26:40;;;;;;;8.38;4.75;;;18.90;99.90;;;19.02;68.40;99940.53;5009108;28;20125;-83
2023/08/26 02:29:08;;;;;;;6.72;3.00;;;18.70;99.90;;;18.76;65.42;99937.19;5003798;28;20044;-82
2023/08/26 02:31:36;;;;;;;9.07;3.03;;;18.50;99.90;;;18.61;66.28;99931.81;4999612;28;20041;-83
2023/08/26 02:34:03;;;;;;;5.85;2.20;;;18.30;99.90;;;18.61;66.07;99933.72;4993385;28;20069;-83
2023/08/26 02:36:31;;;;;;;9.20;2.63;;;18.30;99.90;;;18.56;65.50;99939.94;5010757;28;20137;-83
2023/08/26 02:38:58;;;;;;;9.50;2.40;;;18.20;99.90;;;18.56;66.23;99936.44;4999504;28;20081;-82
2023/08/26 02:41:25;;;;;;;6.75;1.90;;;18.20;99.90;;;18.57;66.01;99940.75;4996357;28;20045;-83
2023/08/26 02:43:52;;;;;;;8.02;2.00;;;18.10;99.90;;;18.56;64.79;99949.94;5005597;28;20051;-83
2023/08/26 02:46:19;;;;;;;7.95;2.38;;;18.10;99.90;;;18.51;64.90;99939.97;5002207;28;20045;-83
2023/08/26 02:48:48;;;;;;;9.57;2.30;;;18.00;99.90;;;18.47;64.29;99931.63;4992194;28;20054;-82
2023/08/26 02:51:15;;;;;;;6.28;2.05;;;17.90;99.90;;;18.40;64.07;99946.50;4997453;28;20046;-82
2023/08/26 02:53:43;;;;;;;9.27;1.90;;;17.90;99.90;;;18.33;63.28;99948.69;4994987;28;20416;-82
2023/08/26 02:56:10;;;;;;;7.70;1.92;;;17.80;99.90;;;18.28;65.31;99953.00;5002973;28;20046;-82
2023/08/26 02:58:37;;;;;;;9.52;1.80;;;17.70;99.90;;;18.30;65.35;99963.56;5009503;28;20053;-83
2023/08/26 03:01:06;;;;;;;5.40;1.90;;;17.70;99.90;;;18.27;65.71;99956.00;5008278;28;20026;-83
2023/08/26 03:03:33;;;;;;;10.45;1.90;;;17.70;99.90;;;18.25;65.58;99960.84;5006288;28;20042;-82
2023/08/26 03:06:03;;;;;;;7.88;2.00;;;17.60;99.90;;;18.27;65.96;99972.19;5018987;28;20156;-82
2023/08/26 03:08:30;;;;;;;8.85;2.33;;;17.60;99.90;;;18.26;66.08;99973.28;4997904;28;20053;-83
2023/08/26 03:11:00;;;;;;;5.07;2.20;;;17.60;99.90;;;18.24;65.77;99973.53;4986151;28;20450;-83
2023/08/26 03:13:28;;;;;;;6.13;2.35;;;17.60;99.90;;;18.22;65.62;99967.59;4993235;28;20524;-83
2023/08/26 03:15:55;;;;;;;6.75;2.20;;;17.60;99.90;;;18.17;66.02;99974.91;5014100;28;20128;-82
2023/08/26 03:18:22;;;;;;;10.20;2.42;;;17.50;99.90;;;18.20;66.59;99983.28;5011611;28;20522;-82
2023/08/26 03:20:50;;;;;;;7.75;2.30;;;17.60;99.90;;;18.17;66.29;99983.81;4994514;28;20052;-82
2023/08/26 03:23:18;;;;;;;9.02;2.47;;;17.50;99.90;;;18.12;66.18;99988.44;5000836;28;20125;-83
2023/08/26 03:25:47;;;;;;;5.82;2.50;;;17.60;99.90;;;18.13;66.11;99992.72;5006668;28;20057;-82
2023/08/26 03:28:14;;;;;;;9.52;2.35;;;17.50;99.90;;;18.11;66.26;99994.91;4999337;28;20046;-83
2023/08/26 03:30:42;;;;;;;6.72;2.53;;;17.50;99.90;;;18.09;66.23;99988.97;5024148;28;20104;-82
2023/08/26 03:33:11;;;;;;;7.82;2.70;;;17.40;99.90;;;18.02;66.16;99991.94;5000537;28;20049;-82
2023/08/26 03:35:39;;;;;;;5.65;2.33;;;17.40;99.90;;;18.02;66.37;99984.66;5007239;28;20048;-82
2023/08/26 03:38:07;;;;;;;5.30;2.30;;;17.30;99.90;;;17.95;65.81;99980.59;5007097;28;20245;-82
2023/08/26 03:40:40;;;;;;;7.03;2.40;;;17.30;99.90;;;17.94;66.35;99984.41;5002850;28;20062;-82
2023/08/26 03:43:07;;;;;;;6.93;2.00;;;17.30;99.90;;;17.94;66.46;99987.91;5008014;28;20042;-82
2023/08/26 03:45:34;;;;;;;8.35;2.40;;;17.30;99.90;;;17.88;66.35;99991.69;5012451;28;20044;-82
2023/08/26 03:48:02;;;;;;;7.20;2.45;;;17.20;99.90;;;17.86;66.10;99993.84;4996555;28;20137;-82
2023/08/26 03:50:29;;;;;;;5.78;2.45;;;17.20;99.90;;;17.85;66.15;99989.53;5001020;28;20115;-83
2023/08/26 03:52:57;;;;;;;9.02;2.33;;;17.20;99.90;;;17.84;66.18;99993.31;4997667;28;20477;-82
2023/08/26 03:55:24;;;;;;;6.18;2.03;;;17.20;99.90;;;17.78;65.89;99994.41;5004145;28;20124;-82
2023/08/26 03:57:53;;;;;;;11.35;2.63;;;17.20;99.90;;;17.80;66.36;99997.63;5001435;28;20050;-82
2023/08/26 04:00:20;;;;;;;8.63;2.15;;;17.10;99.90;;;17.81;66.09;99995.72;5019837;28;20461;-82
2023/08/26 04:02:47;;;;;;;5.75;2.25;;;17.20;99.90;;;17.78;65.84;99996.28;5001498;28;20077;-83
2023/08/26 04:05:16;;;;;;;6.07;2.22;;;17.10;99.90;;;17.78;66.32;99997.09;4988580;28;20038;-82
2023/08/26 04:07:44;;;;;;;8.85;2.58;;;17.10;99.90;;;17.73;65.89;100006.00;4996602;28;20064;-82
2023/08/26 04:10:11;;;;;;;10.75;2.17;;;17.10;99.90;;;17.72;66.33;100006.25;5029916;28;20125;-82
2023/08/26 04:12:39;;;;;;;10.30;2.50;;;17.00;99.90;;;17.69;66.52;100004.06;4996117;28;20053;-82
2023/08/26 04:15:09;;;;;;;7.55;2.30;;;17.00;99.90;;;17.65;65.78;100008.38;4987830;28;20040;-82
2023/08/26 04:17:37;;;;;;;6.93;2.22;;;17.00;99.90;;;17.64;66.15;100021.06;4991652;28;20057;-82
2023/08/26 04:20:06;;;;;;;8.75;2.33;;;17.00;99.90;;;17.62;66.19;100012.44;5003034;28;20431;-82
2023/08/26 04:22:33;;;;;;;7.75;2.30;;;17.00;99.90;;;17.58;66.00;100015.94;4990005;28;20512;-82
2023/08/26 04:25:00;;;;;;;5.57;2.28;;;16.90;99.90;;;17.54;66.32;100012.97;5020828;28;20046;-82
2023/08/26 04:27:28;;;;;;;8.80;2.35;;;16.90;99.90;;;17.53;65.79;100010.53;5002334;28;20069;-82
2023/08/26 04:29:55;;;;;;;11.82;2.67;;;16.90;99.90;;;17.53;66.44;100024.03;5029136;28;20042;-84
2023/08/26 04:32:24;;;;;;;11.63;2.80;;;16.90;99.90;;;17.50;66.27;100020.78;5013235;28;20470;-83
2023/08/26 04:34:51;;;;;;;8.68;2.50;;;16.80;99.90;;;17.50;66.47;100018.06;5006385;28;20046;-83
2023/08/26 04:37:20;;;;;;;14.10;3.03;;;16.80;99.90;;;17.50;66.72;100014.56;5023950;28;20081;-83
2023/08/26 04:39:47;;;;;;;7.43;2.42;;;16.80;99.90;;;17.51;66.21;100025.06;5013910;28;20076;-84
2023/08/26 04:42:15;;;;;;;10.02;2.65;;;16.80;99.90;;;17.55;66.35;100030.75;5030720;28;20463;-84
2023/08/26 04:44:42;;;;;;;4.40;2.25;;;16.80;99.90;;;17.50;65.92;100036.94;4999763;28;20155;-83
2023/08/26 04:47:09;;;;;;;8.23;2.70;;;16.80;99.90;;;17.52;66.22;100034.00;5000532;28;20072;-84
2023/08/26 04:49:39;;;;;;;11.23;2.67;;;16.80;99.90;;;17.50;66.27;100039.66;5001385;28;20507;-83
2023/08/26 04:52:07;;;;;;;6.38;2.20;;;16.80;99.90;;;17.52;65.79;100036.69;5018408;28;20069;-84
2023/08/26 04:54:34;;;;;;;8.20;2.20;;;16.90;99.90;;;17.50;65.88;100036.94;4998142;28;20097;-84
2023/08/26 04:57:02;;;;;;;6.80;2.28;;;16.80;99.90;;;17.48;65.76;100047.19;5011405;28;20045;-84
2023/08/26 04:59:29;;;;;;;15.27;2.50;;;16.80;99.90;;;17.50;66.72;100049.63;4999874;28;20474;-84
2023/08/26 05:01:57;;;;;;;8.73;2.50;;;16.80;99.90;;;17.51;66.11;100046.66;5016092;28;20402;-84
2023/08/26 05:04:24;;;;;;;8.77;2.83;;;16.80;99.90;;;17.46;64.79;100057.44;4998062;28;20080;-84
2023/08/26 05:06:53;;;;;;;9.73;2.47;;;16.80;99.90;;;17.38;65.33;100052.56;5023731;28;20133;-84
2023/08/26 05:09:20;;;;;;;8.60;2.78;;;16.80;99.90;;;17.44;65.90;100059.59;4999801;28;20045;-83
2023/08/26 05:11:48;;;;;;;9.90;2.55;;;16.80;99.90;;;17.44;66.21;100058.78;5014611;28;20043;-84
2023/08/26 05:14:15;;;;;;;10.18;2.72;;;16.80;99.90;;;17.48;65.88;100054.47;5001814;28;20088;-84
2023/08/26 05:16:42;;;;;;;8.15;2.55;;;16.80;99.90;;;17.49;66.30;100061.50;4994105;28;20053;-84
2023/08/26 05:19:10;;;;;;;7.82;2.80;;;16.90;99.90;;;17.54;65.79;100058.00;5000757;28;20034;-84
2023/08/26 05:21:37;;;;;;;10.60;2.75;;;16.90;99.90;;;17.54;65.90;100061.50;5003501;28;20129;-84
2023/08/26 05:24:07;;;;;;;7.40;2.67;;;16.90;99.90;;;17.58;65.99;100067.97;5014669;28;20056;-84
2023/08/26 05:26:34;;;;;;;7.88;2.65;;;16.90;99.90;;;17.59;65.58;100071.50;5018693;28;20041;-84
2023/08/26 05:29:02;;;;;;;8.40;2.45;;;16.90;99.90;;;17.60;65.51;100070.41;4998584;28;20038;-84
2023/08/26 05:31:31;;;;;;;9.32;2.80;;;17.00;99.90;;;17.40;64.97;100066.59;5010453;28;20068;-83
2023/08/26 05:33:58;;;;;;;8.05;2.53;;;16.90;99.90;;;17.49;65.78;100062.31;5002384;28;20502;-84
2023/08/26 05:36:26;;;;;;;9.63;2.97;;;16.90;99.90;;;17.47;64.91;100066.31;5027142;28;20410;-83
2023/08/26 05:38:54;;;;;;;6.80;2.50;;;17.00;99.90;;;17.56;65.80;100075.50;5028192;28;20430;-82
2023/08/26 05:41:23;;;;;;;9.02;2.80;;;17.10;99.90;;;17.68;65.08;100068.00;5022481;28;20041;-82
2023/08/26 05:43:50;;;;;;;8.55;3.25;;;17.20;99.90;;;17.75;64.80;100075.84;5011574;28;20077;-83
2023/08/26 05:46:18;;;;;;;8.75;2.22;;;17.20;99.90;;;17.74;65.21;100079.63;4994920;28;20276;-85
2023/08/26 05:48:45;;;;;;;8.40;2.60;;;17.20;99.90;;;17.79;64.85;100086.91;4998611;28;20560;-87
2023/08/26 05:51:12;;;;;;;8.68;2.47;;;17.30;99.90;;;17.75;65.23;100075.84;4998828;28;20068;-87
2023/08/26 05:53:40;;;;;;;7.93;2.90;;;17.30;99.90;;;17.77;64.38;100081.81;4988316;28;20066;-87
2023/08/26 05:56:07;;;;;;;6.72;2.70;;;17.30;99.90;;;17.83;65.15;100075.31;5005411;28;20129;-90
2023/08/26 05:58:36;;;;;;;7.68;2.83;;;17.40;99.90;;;17.90;64.57;100075.03;5003844;28;20042;-88
2023/08/26 06:01:03;;;;;;;6.90;2.25;;;17.40;99.90;;;17.86;64.47;100080.19;5024559;28;20797;-88
2023/08/26 06:03:31;;;;;;;9.68;2.60;;;17.40;99.90;;;17.84;65.09;100076.13;4995631;28;20060;-88
2023/08/26 06:06:06;;;;;;;7.88;2.38;;;17.50;99.90;;;17.90;65.36;100077.75;4984458;28;20071;-88
2023/08/26 06:08:33;;;;;;;7.18;2.40;;;17.50;99.90;;;17.85;64.57;100080.44;5002884;28;20121;-89
2023/08/26 06:11:00;;;;;;;9.20;2.58;;;17.50;99.90;;;17.85;64.65;100075.03;5009871;28;20046;-88
2023/08/26 06:13:28;;;;;;;8.10;2.50;;;17.50;99.90;;;17.87;64.43;100072.91;5000813;28;20120;-88
2023/08/26 06:15:57;;;;;;;7.82;2.25;;;17.50;99.90;;;17.84;64.79;100079.63;4995967;28;20134;-87
2023/08/26 06:18:26;;;;;;;10.83;2.60;;;17.50;99.90;;;17.86;64.20;100079.34;4990568;28;20038;-88
2023/08/26 06:20:53;;;;;;;8.45;2.60;;;17.50;99.90;;;17.75;64.12;100073.16;5025394;28;20046;-87
2023/08/26 06:23:21;;;;;;;6.32;2.10;;;17.40;99.90;;;17.72;64.78;100070.97;5000527;28;20426;-89
2023/08/26 06:25:53;;;;;;;9.95;2.72;;;17.40;99.90;;;17.79;65.40;100076.94;4996448;28;20097;-89
2023/08/26 06:28:22;;;;;;;6.85;2.35;;;17.50;99.90;;;17.86;65.27;100074.78;5004012;28;20095;-88
2023/08/26 06:30:49;;;;;;;5.88;2.05;;;17.60;99.90;;;17.91;65.17;100082.88;4993907;28;20069;-88
2023/08/26 06:33:18;;;;;;;8.13;2.67;;;17.50;99.90;;;17.98;65.44;100078.03;5001506;28;20065;-88
2023/08/26 06:35:47;;;;;;;7.97;1.98;;;17.70;99.90;;;18.01;65.12;100082.88;5022475;28;20040;-86
2023/08/26 06:38:14;;;;;;;5.68;2.08;;;17.70;99.90;;;18.01;63.95;100088.28;5029080;28;20128;-87
2023/08/26 06:40:42;;;;;;;7.47;1.77;;;17.80;99.90;;;18.12;64.95;100083.69;4996802;28;20042;-86
2023/08/26 06:43:09;;;;;;;6.43;2.13;;;17.90;99.90;;;18.24;64.96;100070.72;5003905;28;20104;-86
2023/08/26 06:45:36;;;;;;;9.20;2.15;;;18.00;99.90;;;18.35;64.40;100071.53;4991729;28;20042;-86
2023/08/26 06:48:07;;;;;;;6.07;1.60;;;18.20;99.90;;;18.37;63.02;100076.66;4999987;28;20121;-86
2023/08/26 06:50:36;;;;;;;7.40;1.70;;;18.20;99.90;;;18.44;63.62;100075.28;4993015;28;20100;-86
2023/08/26 06:53:03;;;;;;;6.90;1.80;;;18.20;99.90;;;18.53;63.28;100064.72;5005159;28;20116;-86
2023/08/26 06:55:30;;;;;;;5.45;1.60;;;18.40;99.90;;;18.56;62.30;100066.09;4996760;28;20129;-86
2023/08/26 06:57:58;;;;;;;5.75;1.85;;;18.40;99.90;;;18.64;63.27;100071.75;5023055;28;20077;-86
2023/08/26 07:00:25;;;;;;;5.85;1.67;;;18.50;99.90;;;18.66;62.81;100074.16;4998131;28;20137;-86
2023/08/26 07:02:52;;;;;;;10.68;2.40;;;18.50;99.90;;;18.67;62.79;100079.28;4997993;28;20038;-88
2023/08/26 07:05:20;;;;;;;6.93;1.80;;;18.60;99.90;;;18.75;63.52;100084.16;5012744;28;20076;-88
2023/08/26 07:07:49;;;;;;;7.45;1.63;;;18.60;99.90;;;18.83;62.65;100088.19;4998867;28;20045;-87
2023/08/26 07:10:16;;;;;;;6.30;2.10;;;18.70;99.90;;;18.87;64.46;100081.13;4993959;28;20069;-86
2023/08/26 07:12:43;;;;;;;4.32;1.60;;;18.80;99.90;;;18.94;63.48;100073.56;5011958;28;20041;-86
2023/08/26 07:15:11;;;;;;;5.95;1.60;;;18.80;99.90;;;18.98;63.20;100063.00;4994509;28;20061;-82
2023/08/26 07:17:38;;;;;;;5.78;1.67;;;18.90;99.90;;;19.10;64.57;100073.50;5011344;28;20042;-83
2023/08/26 07:20:08;;;;;;;5.60;1.60;;;19.00;99.90;;;19.14;62.36;100066.47;4994832;28;20077;-84
2023/08/26 07:22:35;;;;;;;5.53;1.45;;;19.10;99.90;;;19.09;62.49;100072.69;5012837;28;20076;-83
2023/08/26 07:25:05;;;;;;;5.20;1.63;;;19.10;99.90;;;18.93;62.28;100077.31;5012427;28;20046;-82
2023/08/26 07:27:32;;;;;;;5.60;1.60;;;19.00;99.90;;;18.95;62.51;100077.88;5010426;28;20045;-82
2023/08/26 07:29:59;;;;;;;5.35;1.38;;;19.00;99.90;;;18.98;61.21;100076.50;5010760;28;20120;-82
2023/08/26 07:32:26;;;;;;;5.43;1.27;;;19.00;99.90;;;19.00;60.35;100077.84;5011217;28;20069;-82
2023/08/26 07:34:54;;;;;;;5.38;1.65;;;19.00;99.60;;;18.97;61.81;100078.41;4995869;28;20065;-82
2023/08/26 07:37:21;;;;;;;5.25;1.38;;;19.00;99.90;;;19.18;63.12;100072.91;5007557;28;20053;-81
2023/08/26 07:39:50;;;;;;;4.50;1.40;;;19.20;99.90;;;19.30;62.20;100071.50;5010252;28;20050;-81
2023/08/26 07:42:19;;;;;;;5.43;1.48;;;19.30;99.90;;;19.40;60.75;100069.81;5008974;28;20033;-81
2023/08/26 07:44:46;;;;;;;6.57;1.67;;;19.50;98.90;;;19.47;59.92;100065.72;4993936;28;20064;-82
2023/08/26 07:47:13;;;;;;;9.00;1.80;;;19.50;97.60;;;19.50;59.85;100069.75;5011377;28;20120;-82
2023/08/26 07:49:40;;;;;;;7.30;1.60;;;19.60;98.00;;;19.54;60.39;100071.63;5013103;28;20056;-82
2023/08/26 07:52:09;;;;;;;5.10;1.42;;;19.60;98.50;;;19.60;60.72;100071.63;5007761;28;20034;-82
2023/08/26 07:54:36;;;;;;;3.40;1.20;;;19.60;98.50;;;19.64;60.20;100070.78;5018512;28;20049;-82
2023/08/26 07:57:04;;;;;;;4.47;1.40;;;19.70;98.10;;;19.66;59.00;100074.00;5001292;28;20706;-87
2023/08/26 07:59:33;;;;;;;5.30;1.33;;;19.70;97.00;;;19.72;60.62;100067.50;4997177;28;20041;-83
2023/08/26 08:02:00;;;;;;;7.78;1.50;;;19.70;98.60;;;19.73;58.56;100071.00;4995547;28;20077;-82
2023/08/26 08:04:27;;;;;;;5.05;1.45;;;19.80;96.70;;;19.50;58.40;100065.16;5012023;28;20056;-83
2023/08/26 08:06:54;;;;;;;5.18;1.70;;;19.50;96.30;;;19.51;59.90;100061.34;5012221;28;20572;-83
2023/08/26 08:09:22;;;;;;;7.32;1.40;;;19.50;97.60;;;19.61;60.07;100060.50;5012512;28;20421;-82
2023/08/26 08:11:49;;;;;;;5.10;1.58;;;19.60;97.80;;;19.69;60.74;100062.63;5009135;28;20093;-83
2023/08/26 08:14:16;;;;;;;5.53;1.45;;;19.70;98.70;;;19.72;58.31;100072.91;5026629;28;20046;-83
2023/08/26 08:16:45;;;;;;;4.60;1.60;;;19.70;96.70;;;19.72;57.48;100066.69;5016022;28;20133;-86
2023/08/26 08:19:12;;;;;;;6.05;1.35;;;19.80;95.30;;;19.52;58.94;100071.13;4993943;28;20057;-85
2023/08/26 08:21:39;;;;;;;4.80;1.80;;;19.60;96.50;;;19.54;58.64;100077.03;5006608;28;20042;-86
2023/08/26 08:24:07;;;;;;;4.78;1.20;;;19.60;96.40;;;19.58;59.77;100071.06;4997728;28;20042;-85
2023/08/26 08:26:35;;;;;;;5.80;1.70;;;19.50;97.60;;;19.63;57.77;100077.28;5031354;28;20038;-86
2023/08/26 08:29:02;;;;;;;9.70;1.80;;;19.60;95.80;;;19.64;57.35;100073.50;5021397;28;20042;-86
2023/08/26 08:31:29;;;;;;;6.63;1.50;;;19.70;94.90;;;19.67;58.13;100080.25;5006215;28;20044;-85
2023/08/26 08:33:58;;;;;;;4.22;1.27;;;19.70;95.30;;;19.77;58.27;100080.19;5013730;28;20046;-85
2023/08/26 08:36:25;;;;;;;6.75;1.60;;;19.90;95.50;;;19.83;58.48;100092.56;4992774;28;20084;-86
2023/08/26 08:38:53;;;;;;;5.82;1.55;;;20.00;95.60;;;19.90;59.27;100092.25;5008278;28;20056;-86
2023/08/26 08:41:20;;;;;;;5.90;1.33;;;20.10;96.50;;;20.00;58.25;100086.75;5007639;28;20203;-85
2023/08/26 08:43:49;;;;;;;8.00;1.60;;;20.20;95.40;;;20.04;57.90;100099.44;5008958;28;20149;-86
2023/08/26 08:46:19;;;;;;;6.45;1.85;;;20.20;94.80;;;19.97;58.13;100095.44;5015956;28;20121;-86
2023/08/26 08:48:47;;;;;;;4.63;1.35;;;20.10;94.70;;;19.80;56.85;100093.13;5001903;28;20502;-86
2023/08/26 08:51:18;;;;;;;6.65;2.00;;;20.00;93.20;;;19.71;58.46;100103.72;4998942;28;20042;-85
2023/08/26 08:53:46;;;;;;;6.07;1.70;;;20.00;94.80;;;19.69;56.97;100103.22;5015655;28;20056;-86
2023/08/26 08:56:17;;;;;;;5.00;1.70;;;19.90;93.20;;;19.68;58.65;100101.59;5015731;28;20117;-86
2023/08/26 08:58:49;;;;;;;6.05;1.80;;;19.80;95.30;;;19.69;57.38;100097.81;5015209;28;20042;-85
2023/08/26 09:01:20;;;;;;;10.32;1.90;;;19.80;94.30;;;19.64;58.57;100103.25;5015622;28;20038;-86
2023/08/26 09:03:48;;;;;;;;;;;19.70;95.60;;;19.61;58.40;100106.50;5013766;28;20103;-86
2023/08/26 09:06:19;;;;;;;6.13;1.90;;;19.70;95.30;;;19.59;58.69;100105.97;5014990;28;19922;-85
2023/08/26 09:08:47;;;;;;;5.80;1.60;;;19.70;95.40;;;19.54;59.92;100112.22;5013164;28;20476;-86
2023/08/26 09:11:14;;;;;;;5.32;1.60;;;19.60;96.70;;;19.52;58.11;100108.16;4993686;28;20037;-86
2023/08/26 09:13:42;;;;;;;8.23;2.42;;;19.50;94.90;;;19.53;59.22;100107.88;5014425;28;20121;-85
2023/08/26 09:16:09;;;;;;;8.35;1.88;;;19.50;96.40;;;19.44;58.16;100108.75;5006423;28;20137;-89
2023/08/26 09:18:40;;;;;;;7.25;1.70;;;19.40;95.00;;;19.34;58.73;100103.41;5009616;28;20133;-86
2023/08/26 09:21:09;;;;;;;6.50;1.77;;;19.30;96.20;;;19.37;59.03;100100.94;5000085;28;20057;-85
2023/08/26 09:23:45;;;;;;;4.93;1.55;;;19.30;96.10;;;19.40;59.15;100105.78;5019315;28;20046;-85
2023/08/26 09:26:14;;;;;;;7.45;1.50;;;19.40;96.60;;;19.35;58.51;100096.91;5022646;28;20152;-89
2023/08/26 09:28:49;;;;;;;6.70;1.30;;;19.40;95.30;;;19.44;59.58;100106.84;5013483;28;20514;-84
2023/08/26 09:31:16;;;;;;;3.55;1.25;;;19.40;96.80;;;19.52;59.36;100100.88;5014424;28;20045;-86
2023/08/26 09:33:44;;;;;;;4.45;1.45;;;19.50;96.80;;;19.50;57.98;100107.63;4996525;28;20073;-86
2023/08/26 09:36:11;;;;;;;3.80;1.20;;;19.50;95.10;;;19.49;58.24;100096.00;4996939;28;20046;-87
2023/08/26 09:38:47;;;;;;;9.55;1.35;;;19.50;95.30;;;19.40;57.30;100108.50;5013514;28;20108;-86
2023/08/26 09:41:19;;;;;;;4.90;1.27;;;19.40;94.10;;;19.44;59.22;100104.16;4995921;28;20041;-84
2023/08/26 09:43:48;;;;;;;5.18;1.30;;;19.40;96.10;;;19.33;57.72;100093.69;5013348;28;20041;-90
2023/08/26 09:46:21;;;;;;;4.07;1.20;;;19.30;94.50;;;19.37;59.36;100097.41;4985389;28;20173;-87
2023/08/26 09:48:49;;;;;;;4.95;1.35;;;19.40;96.00;;;19.57;59.62;100102.72;5024550;28;20065;-85
2023/08/26 09:51:27;;;;;;;5.70;1.40;;;19.60;96.50;;;19.64;58.18;100099.75;5008673;28;20045;-88
2023/08/26 09:53:57;;;;;;;3.30;1.20;;;19.80;95.10;;;19.71;59.41;100105.63;5012897;28;20066;-84
2023/08/26 09:56:27;;;;;;;6.07;1.70;;;19.80;96.00;;;19.78;60.34;100106.13;5022293;28;20040;-85
2023/08/26 09:58:58;;;;;;;3.08;1.13;;;19.90;96.60;;;19.85;57.96;100109.31;5002975;28;20045;-88
2023/08/26 10:01:26;;;;;;;4.38;1.38;;;20.00;93.90;;;19.85;57.45;100106.63;4995867;28;20529;-85
2023/08/26 10:04:05;;;;;;;4.47;1.50;;;20.10;93.60;;;19.94;57.19;100099.53;5018463;28;20050;-86
2023/08/26 10:06:42;;;;;;;5.28;1.13;;;20.20;93.00;;;20.01;56.17;100108.13;5002373;28;20046;-87
2023/08/26 10:09:20;;;;;;;3.40;1.20;;;20.20;92.50;;;20.00;56.81;100105.69;5003738;28;20155;-89
2023/08/26 10:11:54;;;;;;;4.53;1.20;;;20.20;92.60;;;20.03;57.26;100103.25;5026904;28;20534;-87
2023/08/26 10:14:29;;;;;;;6.38;1.17;;;20.20;92.90;;;20.08;57.92;100112.41;5015450;28;20072;-88
2023/08/26 10:17:01;;;;;;;3.53;1.08;;;20.30;93.40;;;20.17;58.01;100116.94;5004120;28;20045;-87